Billy Budd — VSPI7 — position and weather

sailwx.info

Track history (hours):
 
Tides and Currents Weather Stations Pressure Air Temp Water Temp Dewpoint Dewpoint Depression Visibility Wind Speed Wind Dir Waves Ship Positions

Billy Budd

Last reported at 2014-Jul-20 11:33 UTC. Time now 2014-Jul-24 03:57 UTC.
Position N 38°17' E 015°40'.

Length 35 m.

Type: Sailing vessel. MMSI: 235003490.

Date/timePositionNaut miles runAvg speedWind from/ knotsBaromVisibWave heightAir tempDewpointWater temp
2014-Jul-20 11:33N 38°17' E 015°40'109 7.8
2014-Jul-19 21:33N 39°43' E 014°14'9 8.5
2014-Jul-19 20:33N 39°49' E 014°06'8 8.4
2014-Jul-19 19:33N 39°56' E 013°59'8 8.5
2014-Jul-19 18:33N 40°02' E 013°51'9 8.7
2014-Jul-19 17:33N 40°08' E 013°44'9 8.8
2014-Jul-19 16:33N 40°15' E 013°36'12 9.3
2014-Jul-19 15:17N 40°23' E 013°25'23 8.6
2014-Jul-19 12:33N 40°42' E 013°07'9 8.5
2014-Jul-19 11:32N 40°50' E 013°02'6 4.4
2014-Jul-19 10:18N 40°55' E 012°58'0 0.0
2014-Jul-19 09:24N 40°55' E 012°58'0 0.0
2014-Jul-19 06:27N 40°55' E 012°58'0 0.0
2014-Jul-19 05:24N 40°55' E 012°58'3 3.9
2014-Jul-19 04:33N 40°52' E 012°60'45 5.5
2014-Jul-18 20:18N 41°22' E 012°15'7 9.3
2014-Jul-18 19:33N 41°27' E 012°08'9 8.9
2014-Jul-18 18:31N 41°34' E 012°00'9 8.7
2014-Jul-18 17:28N 41°40' E 011°52'8 8.7
2014-Jul-18 16:31N 41°47' E 011°45'57 8.2
2014-Jul-18 09:31N 42°30' E 010°54'9 8.7
2014-Jul-18 08:27N 42°37' E 010°45'8 8.9
2014-Jul-18 07:33N 42°43' E 010°39'9 9.4
2014-Jul-18 06:33N 42°51' E 010°31'9 9.1
2014-Jul-18 05:33N 42°58' E 010°25'9 8.9
2014-Jul-18 04:33N 43°06' E 010°19'9 9.2
2014-Jul-18 03:33N 43°14' E 010°13'9 9.3
2014-Jul-18 02:33N 43°22' E 010°06'9 8.9
2014-Jul-18 01:33N 43°29' E 009°59'9 8.7
2014-Jul-18 00:33N 43°37' E 009°52'9 8.8
2014-Jul-17 23:33N 43°44' E 009°47'9 8.5
2014-Jul-17 22:33N 43°52' E 009°41'9 8.6
2014-Jul-17 21:33N 43°59' E 009°34'9 8.9
2014-Jul-17 20:33N 44°06' E 009°27'9 8.9
2014-Jul-17 19:33N 44°14' E 009°22'  
Track history (hours):
 
Tides and Currents Weather Stations Pressure Air Temp Water Temp Dewpoint Dewpoint Depression Visibility Wind Speed Wind Dir Waves Ship Positions

Billy Budd

Last reported at 2014-Jul-20 11:33 UTC. Time now 2014-Jul-24 03:57 UTC.
Position N 38°17' E 015°40'.

Length 35 m.

Type: Sailing vessel. MMSI: 235003490.

Date/timePositionNaut miles runAvg speedWind from/ knotsBaromVisibWave heightAir tempDewpointWater temp
2014-Jul-20 11:33N 38°17' E 015°40'109 7.8
2014-Jul-19 21:33N 39°43' E 014°14'9 8.5
2014-Jul-19 20:33N 39°49' E 014°06'8 8.4
2014-Jul-19 19:33N 39°56' E 013°59'8 8.5
2014-Jul-19 18:33N 40°02' E 013°51'9 8.7
2014-Jul-19 17:33N 40°08' E 013°44'9 8.8
2014-Jul-19 16:33N 40°15' E 013°36'12 9.3
2014-Jul-19 15:17N 40°23' E 013°25'23 8.6
2014-Jul-19 12:33N 40°42' E 013°07'9 8.5
2014-Jul-19 11:32N 40°50' E 013°02'6 4.4
2014-Jul-19 10:18N 40°55' E 012°58'0 0.0
2014-Jul-19 09:24N 40°55' E 012°58'0 0.0
2014-Jul-19 06:27N 40°55' E 012°58'0 0.0
2014-Jul-19 05:24N 40°55' E 012°58'3 3.9
2014-Jul-19 04:33N 40°52' E 012°60'45 5.5
2014-Jul-18 20:18N 41°22' E 012°15'7 9.3
2014-Jul-18 19:33N 41°27' E 012°08'9 8.9
2014-Jul-18 18:31N 41°34' E 012°00'9 8.7
2014-Jul-18 17:28N 41°40' E 011°52'8 8.7
2014-Jul-18 16:31N 41°47' E 011°45'57 8.2
2014-Jul-18 09:31N 42°30' E 010°54'9 8.7
2014-Jul-18 08:27N 42°37' E 010°45'8 8.9
2014-Jul-18 07:33N 42°43' E 010°39'9 9.4
2014-Jul-18 06:33N 42°51' E 010°31'9 9.1
2014-Jul-18 05:33N 42°58' E 010°25'9 8.9
2014-Jul-18 04:33N 43°06' E 010°19'9 9.2
2014-Jul-18 03:33N 43°14' E 010°13'9 9.3
2014-Jul-18 02:33N 43°22' E 010°06'9 8.9
2014-Jul-18 01:33N 43°29' E 009°59'9 8.7
2014-Jul-18 00:33N 43°37' E 009°52'9 8.8
2014-Jul-17 23:33N 43°44' E 009°47'9 8.5
2014-Jul-17 22:33N 43°52' E 009°41'9 8.6
2014-Jul-17 21:33N 43°59' E 009°34'9 8.9
2014-Jul-17 20:33N 44°06' E 009°27'9 8.9
2014-Jul-17 19:33N 44°14' E 009°22'  

Dump ship's entire track history